sensor_id;sensor_type;location;lat;lon;timestamp;P1;durP1;ratioP1;P2;durP2;ratioP2
12224;SDS011;6175;50.956;11.064;2022-08-19T00:00:09;14.60;;;13.27;;
12224;SDS011;6175;50.956;11.064;2022-08-19T00:02:39;18.75;;;16.85;;
12224;SDS011;6175;50.956;11.064;2022-08-19T00:05:06;18.55;;;16.75;;
12224;SDS011;6175;50.956;11.064;2022-08-19T00:07:34;15.80;;;14.25;;
12224;SDS011;6175;50.956;11.064;2022-08-19T00:10:01;14.88;;;13.48;;
12224;SDS011;6175;50.956;11.064;2022-08-19T00:12:30;14.80;;;13.50;;
12224;SDS011;6175;50.956;11.064;2022-08-19T00:14:57;16.05;;;14.45;;
12224;SDS011;6175;50.956;11.064;2022-08-19T00:17:24;12.13;;;11.05;;
12224;SDS011;6175;50.956;11.064;2022-08-19T00:19:51;14.57;;;13.07;;
12224;SDS011;6175;50.956;11.064;2022-08-19T00:22:18;14.32;;;12.93;;
12224;SDS011;6175;50.956;11.064;2022-08-19T00:24:45;15.20;;;13.80;;
12224;SDS011;6175;50.956;11.064;2022-08-19T00:27:13;13.77;;;12.48;;
12224;SDS011;6175;50.956;11.064;2022-08-19T00:29:41;15.43;;;13.93;;
12224;SDS011;6175;50.956;11.064;2022-08-19T00:32:08;13.95;;;12.65;;
12224;SDS011;6175;50.956;11.064;2022-08-19T00:34:36;12.57;;;11.38;;
12224;SDS011;6175;50.956;11.064;2022-08-19T00:37:04;14.20;;;12.73;;
12224;SDS011;6175;50.956;11.064;2022-08-19T00:39:31;13.98;;;12.68;;
12224;SDS011;6175;50.956;11.064;2022-08-19T00:41:58;13.27;;;12.02;;
12224;SDS011;6175;50.956;11.064;2022-08-19T00:44:26;12.35;;;11.15;;
12224;SDS011;6175;50.956;11.064;2022-08-19T00:46:57;12.18;;;10.98;;
12224;SDS011;6175;50.956;11.064;2022-08-19T00:49:25;12.73;;;11.43;;
12224;SDS011;6175;50.956;11.064;2022-08-19T00:51:59;11.13;;;10.23;;
12224;SDS011;6175;50.956;11.064;2022-08-19T00:54:29;10.23;;;9.32;;
12224;SDS011;6175;50.956;11.064;2022-08-19T00:56:58;10.55;;;9.65;;
12224;SDS011;6175;50.956;11.064;2022-08-19T00:59:25;11.82;;;10.73;;
12224;SDS011;6175;50.956;11.064;2022-08-19T01:01:54;11.80;;;10.70;;
12224;SDS011;6175;50.956;11.064;2022-08-19T01:04:23;10.50;;;9.60;;
12224;SDS011;6175;50.956;11.064;2022-08-19T01:06:50;12.02;;;11.02;;
12224;SDS011;6175;50.956;11.064;2022-08-19T01:09:17;11.07;;;10.07;;
12224;SDS011;6175;50.956;11.064;2022-08-19T01:11:44;10.05;;;9.25;;
12224;SDS011;6175;50.956;11.064;2022-08-19T01:14:11;9.93;;;9.13;;
12224;SDS011;6175;50.956;11.064;2022-08-19T01:16:39;8.73;;;8.02;;
12224;SDS011;6175;50.956;11.064;2022-08-19T01:19:09;11.98;;;10.88;;
12224;SDS011;6175;50.956;11.064;2022-08-19T01:21:44;10.02;;;9.10;;
12224;SDS011;6175;50.956;11.064;2022-08-19T01:24:17;10.43;;;9.50;;
12224;SDS011;6175;50.956;11.064;2022-08-19T01:26:44;10.88;;;9.82;;
12224;SDS011;6175;50.956;11.064;2022-08-19T01:29:13;9.63;;;8.82;;
12224;SDS011;6175;50.956;11.064;2022-08-19T01:31:40;11.10;;;9.93;;
12224;SDS011;6175;50.956;11.064;2022-08-19T01:34:08;9.48;;;8.68;;
12224;SDS011;6175;50.956;11.064;2022-08-19T01:36:36;9.00;;;8.25;;
12224;SDS011;6175;50.956;11.064;2022-08-19T01:39:08;9.70;;;8.90;;
12224;SDS011;6175;50.956;11.064;2022-08-19T01:41:38;9.02;;;8.23;;
12224;SDS011;6175;50.956;11.064;2022-08-19T01:44:06;10.57;;;9.57;;
12224;SDS011;6175;50.956;11.064;2022-08-19T01:46:35;11.40;;;10.38;;
12224;SDS011;6175;50.956;11.064;2022-08-19T01:49:02;11.43;;;10.43;;
12224;SDS011;6175;50.956;11.064;2022-08-19T01:51:30;8.80;;;8.10;;
12224;SDS011;6175;50.956;11.064;2022-08-19T01:53:57;11.48;;;10.38;;
12224;SDS011;6175;50.956;11.064;2022-08-19T01:56:25;11.50;;;10.40;;
12224;SDS011;6175;50.956;11.064;2022-08-19T01:58:53;12.48;;;11.27;;
12224;SDS011;6175;50.956;11.064;2022-08-19T02:01:24;10.43;;;9.52;;
12224;SDS011;6175;50.956;11.064;2022-08-19T02:03:51;12.65;;;11.45;;
12224;SDS011;6175;50.956;11.064;2022-08-19T02:06:19;13.93;;;12.65;;
12224;SDS011;6175;50.956;11.064;2022-08-19T02:08:47;12.35;;;11.15;;
12224;SDS011;6175;50.956;11.064;2022-08-19T02:11:18;11.52;;;10.48;;
12224;SDS011;6175;50.956;11.064;2022-08-19T02:13:47;13.85;;;12.65;;
12224;SDS011;6175;50.956;11.064;2022-08-19T02:16:16;11.18;;;10.23;;
12224;SDS011;6175;50.956;11.064;2022-08-19T02:18:44;10.32;;;9.43;;
12224;SDS011;6175;50.956;11.064;2022-08-19T02:21:13;11.55;;;10.57;;
12224;SDS011;6175;50.956;11.064;2022-08-19T02:23:40;10.60;;;9.70;;
12224;SDS011;6175;50.956;11.064;2022-08-19T02:26:07;11.57;;;10.48;;
12224;SDS011;6175;50.956;11.064;2022-08-19T02:28:35;13.18;;;12.07;;
12224;SDS011;6175;50.956;11.064;2022-08-19T02:31:02;12.40;;;11.30;;
12224;SDS011;6175;50.956;11.064;2022-08-19T02:33:31;10.98;;;10.02;;
12224;SDS011;6175;50.956;11.064;2022-08-19T02:35:58;12.85;;;11.75;;
12224;SDS011;6175;50.956;11.064;2022-08-19T02:38:24;13.60;;;12.27;;
12224;SDS011;6175;50.956;11.064;2022-08-19T02:40:52;12.75;;;11.65;;
12224;SDS011;6175;50.956;11.064;2022-08-19T02:43:21;11.60;;;10.60;;
12224;SDS011;6175;50.956;11.064;2022-08-19T02:45:48;12.90;;;11.65;;
12224;SDS011;6175;50.956;11.064;2022-08-19T02:48:16;12.57;;;11.43;;
12224;SDS011;6175;50.956;11.064;2022-08-19T02:50:46;12.60;;;11.50;;
12224;SDS011;6175;50.956;11.064;2022-08-19T02:53:17;13.50;;;12.25;;
12224;SDS011;6175;50.956;11.064;2022-08-19T02:55:47;12.38;;;11.27;;
12224;SDS011;6175;50.956;11.064;2022-08-19T02:58:15;12.27;;;11.18;;
12224;SDS011;6175;50.956;11.064;2022-08-19T03:00:44;12.73;;;11.52;;
12224;SDS011;6175;50.956;11.064;2022-08-19T03:03:11;11.52;;;10.52;;
12224;SDS011;6175;50.956;11.064;2022-08-19T03:05:39;11.65;;;10.57;;
12224;SDS011;6175;50.956;11.064;2022-08-19T03:08:07;12.57;;;11.48;;
12224;SDS011;6175;50.956;11.064;2022-08-19T03:10:40;12.45;;;11.32;;
12224;SDS011;6175;50.956;11.064;2022-08-19T03:13:10;12.70;;;11.57;;
12224;SDS011;6175;50.956;11.064;2022-08-19T03:15:41;13.43;;;12.23;;
12224;SDS011;6175;50.956;11.064;2022-08-19T03:18:08;16.02;;;14.43;;
12224;SDS011;6175;50.956;11.064;2022-08-19T03:20:39;12.95;;;11.73;;
12224;SDS011;6175;50.956;11.064;2022-08-19T03:23:09;16.20;;;14.52;;
12224;SDS011;6175;50.956;11.064;2022-08-19T03:25:37;13.23;;;11.95;;
12224;SDS011;6175;50.956;11.064;2022-08-19T03:28:08;13.13;;;11.93;;
12224;SDS011;6175;50.956;11.064;2022-08-19T03:30:35;12.45;;;11.38;;
12224;SDS011;6175;50.956;11.064;2022-08-19T03:33:02;12.07;;;10.98;;
12224;SDS011;6175;50.956;11.064;2022-08-19T03:35:29;11.30;;;10.32;;
12224;SDS011;6175;50.956;11.064;2022-08-19T03:37:57;11.95;;;10.77;;
12224;SDS011;6175;50.956;11.064;2022-08-19T03:40:26;11.38;;;10.38;;
12224;SDS011;6175;50.956;11.064;2022-08-19T03:42:55;11.63;;;10.63;;
12224;SDS011;6175;50.956;11.064;2022-08-19T03:45:22;11.27;;;10.27;;
12224;SDS011;6175;50.956;11.064;2022-08-19T03:47:49;11.18;;;10.15;;
12224;SDS011;6175;50.956;11.064;2022-08-19T03:50:16;10.02;;;9.13;;
12224;SDS011;6175;50.956;11.064;2022-08-19T03:52:47;11.30;;;10.30;;
12224;SDS011;6175;50.956;11.064;2022-08-19T03:55:15;10.48;;;9.60;;
12224;SDS011;6175;50.956;11.064;2022-08-19T03:57:43;10.25;;;9.40;;
12224;SDS011;6175;50.956;11.064;2022-08-19T04:00:13;11.07;;;10.10;;
12224;SDS011;6175;50.956;11.064;2022-08-19T04:02:41;12.00;;;10.88;;
12224;SDS011;6175;50.956;11.064;2022-08-19T04:05:09;11.23;;;10.32;;
12224;SDS011;6175;50.956;11.064;2022-08-19T04:07:37;10.95;;;9.98;;
12224;SDS011;6175;50.956;11.064;2022-08-19T04:10:05;11.77;;;10.77;;
12224;SDS011;6175;50.956;11.064;2022-08-19T04:12:32;10.63;;;9.73;;
12224;SDS011;6175;50.956;11.064;2022-08-19T04:15:01;14.98;;;13.63;;
12224;SDS011;6175;50.956;11.064;2022-08-19T04:17:29;14.10;;;12.82;;
12224;SDS011;6175;50.956;11.064;2022-08-19T04:19:57;13.13;;;11.95;;
12224;SDS011;6175;50.956;11.064;2022-08-19T04:22:24;13.85;;;12.55;;
12224;SDS011;6175;50.956;11.064;2022-08-19T04:24:51;14.23;;;12.77;;
12224;SDS011;6175;50.956;11.064;2022-08-19T04:27:18;20.88;;;18.75;;
12224;SDS011;6175;50.956;11.064;2022-08-19T04:29:45;14.48;;;13.02;;
12224;SDS011;6175;50.956;11.064;2022-08-19T04:32:14;14.50;;;13.10;;
12224;SDS011;6175;50.956;11.064;2022-08-19T04:34:41;15.05;;;13.65;;
12224;SDS011;6175;50.956;11.064;2022-08-19T04:37:09;16.88;;;15.27;;
12224;SDS011;6175;50.956;11.064;2022-08-19T04:39:37;19.27;;;17.27;;
12224;SDS011;6175;50.956;11.064;2022-08-19T04:42:22;15.45;;;14.05;;
12224;SDS011;6175;50.956;11.064;2022-08-19T04:45:05;15.68;;;14.18;;
12224;SDS011;6175;50.956;11.064;2022-08-19T04:47:36;19.45;;;17.38;;
12224;SDS011;6175;50.956;11.064;2022-08-19T04:50:03;15.82;;;14.32;;
12224;SDS011;6175;50.956;11.064;2022-08-19T04:52:31;13.15;;;11.95;;
12224;SDS011;6175;50.956;11.064;2022-08-19T04:54:57;18.65;;;16.85;;
12224;SDS011;6175;50.956;11.064;2022-08-19T04:57:24;15.05;;;13.60;;
12224;SDS011;6175;50.956;11.064;2022-08-19T04:59:53;19.77;;;17.77;;
12224;SDS011;6175;50.956;11.064;2022-08-19T05:02:20;21.55;;;19.30;;
12224;SDS011;6175;50.956;11.064;2022-08-19T05:04:49;16.70;;;15.10;;
12224;SDS011;6175;50.956;11.064;2022-08-19T05:07:16;20.08;;;18.08;;
12224;SDS011;6175;50.956;11.064;2022-08-19T05:09:43;16.58;;;15.05;;
12224;SDS011;6175;50.956;11.064;2022-08-19T05:12:11;15.55;;;14.05;;
12224;SDS011;6175;50.956;11.064;2022-08-19T05:14:38;14.65;;;13.35;;
12224;SDS011;6175;50.956;11.064;2022-08-19T05:17:05;20.08;;;18.05;;
12224;SDS011;6175;50.956;11.064;2022-08-19T05:19:32;20.05;;;18.15;;
12224;SDS011;6175;50.956;11.064;2022-08-19T05:22:17;21.10;;;19.00;;
12224;SDS011;6175;50.956;11.064;2022-08-19T05:25:01;16.58;;;15.07;;
12224;SDS011;6175;50.956;11.064;2022-08-19T05:27:28;16.75;;;15.15;;
12224;SDS011;6175;50.956;11.064;2022-08-19T05:29:55;18.92;;;17.02;;
12224;SDS011;6175;50.956;11.064;2022-08-19T05:32:23;18.10;;;16.40;;
12224;SDS011;6175;50.956;11.064;2022-08-19T05:34:50;16.08;;;14.50;;
12224;SDS011;6175;50.956;11.064;2022-08-19T05:37:19;14.70;;;13.30;;
12224;SDS011;6175;50.956;11.064;2022-08-19T05:39:46;22.48;;;20.20;;
12224;SDS011;6175;50.956;11.064;2022-08-19T05:42:13;17.60;;;15.80;;
12224;SDS011;6175;50.956;11.064;2022-08-19T05:44:42;21.48;;;19.30;;
12224;SDS011;6175;50.956;11.064;2022-08-19T05:47:11;16.95;;;15.45;;
12224;SDS011;6175;50.956;11.064;2022-08-19T05:49:39;14.50;;;13.13;;
12224;SDS011;6175;50.956;11.064;2022-08-19T05:52:09;15.45;;;14.00;;
12224;SDS011;6175;50.956;11.064;2022-08-19T05:54:40;13.55;;;12.35;;
12224;SDS011;6175;50.956;11.064;2022-08-19T05:57:08;16.13;;;14.50;;
12224;SDS011;6175;50.956;11.064;2022-08-19T05:59:36;12.57;;;11.38;;
12224;SDS011;6175;50.956;11.064;2022-08-19T06:02:04;16.67;;;15.05;;
12224;SDS011;6175;50.956;11.064;2022-08-19T06:04:31;20.25;;;18.25;;
12224;SDS011;6175;50.956;11.064;2022-08-19T06:06:59;20.95;;;18.95;;
12224;SDS011;6175;50.956;11.064;2022-08-19T06:09:27;17.13;;;15.52;;
12224;SDS011;6175;50.956;11.064;2022-08-19T06:11:56;15.65;;;14.07;;
12224;SDS011;6175;50.956;11.064;2022-08-19T06:14:27;19.88;;;17.95;;
12224;SDS011;6175;50.956;11.064;2022-08-19T06:16:55;15.05;;;13.73;;
12224;SDS011;6175;50.956;11.064;2022-08-19T06:19:25;15.88;;;14.40;;
12224;SDS011;6175;50.956;11.064;2022-08-19T06:21:54;16.05;;;14.45;;
12224;SDS011;6175;50.956;11.064;2022-08-19T06:24:23;17.55;;;15.75;;
12224;SDS011;6175;50.956;11.064;2022-08-19T06:26:52;15.90;;;14.30;;
12224;SDS011;6175;50.956;11.064;2022-08-19T06:29:23;16.70;;;14.95;;
12224;SDS011;6175;50.956;11.064;2022-08-19T06:31:52;15.25;;;13.73;;
12224;SDS011;6175;50.956;11.064;2022-08-19T06:34:21;15.45;;;13.95;;
12224;SDS011;6175;50.956;11.064;2022-08-19T06:36:49;11.82;;;10.65;;
12224;SDS011;6175;50.956;11.064;2022-08-19T06:39:19;11.10;;;9.88;;
12224;SDS011;6175;50.956;11.064;2022-08-19T06:41:49;11.65;;;10.55;;
12224;SDS011;6175;50.956;11.064;2022-08-19T06:44:19;12.82;;;10.23;;
12224;SDS011;6175;50.956;11.064;2022-08-19T06:47:02;11.95;;;10.85;;
12224;SDS011;6175;50.956;11.064;2022-08-19T06:49:31;10.50;;;9.43;;
12224;SDS011;6175;50.956;11.064;2022-08-19T06:51:58;9.85;;;8.02;;
12224;SDS011;6175;50.956;11.064;2022-08-19T06:54:26;8.43;;;7.63;;
12224;SDS011;6175;50.956;11.064;2022-08-19T06:56:54;10.10;;;9.05;;
12224;SDS011;6175;50.956;11.064;2022-08-19T06:59:22;10.27;;;9.27;;
12224;SDS011;6175;50.956;11.064;2022-08-19T07:01:53;8.73;;;7.35;;
12224;SDS011;6175;50.956;11.064;2022-08-19T07:04:24;9.88;;;8.85;;
12224;SDS011;6175;50.956;11.064;2022-08-19T07:06:56;8.63;;;7.82;;
12224;SDS011;6175;50.956;11.064;2022-08-19T07:09:25;7.30;;;6.70;;
12224;SDS011;6175;50.956;11.064;2022-08-19T07:11:53;8.18;;;7.40;;
12224;SDS011;6175;50.956;11.064;2022-08-19T07:14:22;9.23;;;8.02;;
12224;SDS011;6175;50.956;11.064;2022-08-19T07:16:51;7.40;;;6.68;;
12224;SDS011;6175;50.956;11.064;2022-08-19T07:19:20;6.90;;;6.28;;
12224;SDS011;6175;50.956;11.064;2022-08-19T07:21:51;6.75;;;6.15;;
12224;SDS011;6175;50.956;11.064;2022-08-19T07:24:19;8.90;;;7.30;;
12224;SDS011;6175;50.956;11.064;2022-08-19T07:26:48;9.35;;;8.23;;
12224;SDS011;6175;50.956;11.064;2022-08-19T07:29:17;7.05;;;6.35;;
12224;SDS011;6175;50.956;11.064;2022-08-19T07:31:45;9.40;;;7.50;;
12224;SDS011;6175;50.956;11.064;2022-08-19T07:34:12;7.43;;;6.65;;
12224;SDS011;6175;50.956;11.064;2022-08-19T07:36:42;7.60;;;6.57;;
12224;SDS011;6175;50.956;11.064;2022-08-19T07:39:10;7.95;;;6.55;;
12224;SDS011;6175;50.956;11.064;2022-08-19T07:41:38;5.40;;;4.90;;
12224;SDS011;6175;50.956;11.064;2022-08-19T07:44:06;5.53;;;5.03;;
12224;SDS011;6175;50.956;11.064;2022-08-19T07:46:34;6.90;;;6.10;;
12224;SDS011;6175;50.956;11.064;2022-08-19T07:49:04;5.72;;;5.28;;
12224;SDS011;6175;50.956;11.064;2022-08-19T07:51:32;5.70;;;5.20;;
12224;SDS011;6175;50.956;11.064;2022-08-19T07:54:00;6.28;;;5.60;;
12224;SDS011;6175;50.956;11.064;2022-08-19T07:56:28;5.57;;;5.03;;
12224;SDS011;6175;50.956;11.064;2022-08-19T07:58:56;5.25;;;4.65;;
12224;SDS011;6175;50.956;11.064;2022-08-19T08:01:25;6.05;;;5.43;;
12224;SDS011;6175;50.956;11.064;2022-08-19T08:03:53;4.60;;;4.13;;
12224;SDS011;6175;50.956;11.064;2022-08-19T08:06:40;4.43;;;4.03;;
12224;SDS011;6175;50.956;11.064;2022-08-19T08:09:26;6.53;;;4.80;;
12224;SDS011;6175;50.956;11.064;2022-08-19T08:11:58;5.78;;;4.97;;
12224;SDS011;6175;50.956;11.064;2022-08-19T08:14:28;5.60;;;4.07;;
12224;SDS011;6175;50.956;11.064;2022-08-19T08:16:57;3.65;;;3.35;;
12224;SDS011;6175;50.956;11.064;2022-08-19T08:19:25;6.07;;;4.07;;
12224;SDS011;6175;50.956;11.064;2022-08-19T08:21:53;6.30;;;4.45;;
12224;SDS011;6175;50.956;11.064;2022-08-19T08:24:21;4.07;;;3.72;;
12224;SDS011;6175;50.956;11.064;2022-08-19T08:26:51;5.25;;;4.53;;
12224;SDS011;6175;50.956;11.064;2022-08-19T08:29:18;4.10;;;3.80;;
12224;SDS011;6175;50.956;11.064;2022-08-19T08:31:45;5.05;;;3.90;;
12224;SDS011;6175;50.956;11.064;2022-08-19T08:34:13;3.80;;;3.50;;
12224;SDS011;6175;50.956;11.064;2022-08-19T08:36:41;4.43;;;4.03;;
12224;SDS011;6175;50.956;11.064;2022-08-19T08:39:11;4.28;;;3.88;;
12224;SDS011;6175;50.956;11.064;2022-08-19T08:41:42;3.80;;;3.47;;
12224;SDS011;6175;50.956;11.064;2022-08-19T08:44:18;4.15;;;3.83;;
12224;SDS011;6175;50.956;11.064;2022-08-19T08:46:49;7.05;;;4.10;;
12224;SDS011;6175;50.956;11.064;2022-08-19T08:49:24;4.45;;;3.80;;
12224;SDS011;6175;50.956;11.064;2022-08-19T08:51:59;3.30;;;3.00;;
12224;SDS011;6175;50.956;11.064;2022-08-19T08:54:30;4.22;;;3.15;;
12224;SDS011;6175;50.956;11.064;2022-08-19T08:57:00;4.70;;;3.60;;
12224;SDS011;6175;50.956;11.064;2022-08-19T08:59:33;5.45;;;3.63;;
12224;SDS011;6175;50.956;11.064;2022-08-19T09:02:02;3.50;;;3.00;;
12224;SDS011;6175;50.956;11.064;2022-08-19T09:04:30;4.45;;;3.50;;
12224;SDS011;6175;50.956;11.064;2022-08-19T09:07:01;3.70;;;3.22;;
12224;SDS011;6175;50.956;11.064;2022-08-19T09:09:41;3.55;;;2.85;;
12224;SDS011;6175;50.956;11.064;2022-08-19T09:12:13;3.40;;;3.10;;
12224;SDS011;6175;50.956;11.064;2022-08-19T09:14:49;3.10;;;2.90;;
12224;SDS011;6175;50.956;11.064;2022-08-19T09:17:23;3.97;;;3.05;;
12224;SDS011;6175;50.956;11.064;2022-08-19T09:19:53;4.57;;;3.13;;
12224;SDS011;6175;50.956;11.064;2022-08-19T09:22:25;4.95;;;3.05;;
12224;SDS011;6175;50.956;11.064;2022-08-19T09:24:53;3.58;;;2.80;;
12224;SDS011;6175;50.956;11.064;2022-08-19T09:27:20;2.83;;;2.42;;
12224;SDS011;6175;50.956;11.064;2022-08-19T09:29:50;2.72;;;2.40;;
12224;SDS011;6175;50.956;11.064;2022-08-19T09:32:17;3.47;;;2.50;;
12224;SDS011;6175;50.956;11.064;2022-08-19T09:34:44;3.58;;;2.80;;
12224;SDS011;6175;50.956;11.064;2022-08-19T09:37:11;3.03;;;2.83;;
12224;SDS011;6175;50.956;11.064;2022-08-19T09:39:39;2.80;;;2.55;;
12224;SDS011;6175;50.956;11.064;2022-08-19T09:42:07;3.60;;;2.38;;
12224;SDS011;6175;50.956;11.064;2022-08-19T09:44:38;2.40;;;2.20;;
12224;SDS011;6175;50.956;11.064;2022-08-19T09:47:07;2.72;;;2.25;;
12224;SDS011;6175;50.956;11.064;2022-08-19T09:49:36;3.40;;;2.30;;
12224;SDS011;6175;50.956;11.064;2022-08-19T09:52:04;3.42;;;2.63;;
12224;SDS011;6175;50.956;11.064;2022-08-19T09:54:32;2.78;;;2.40;;
12224;SDS011;6175;50.956;11.064;2022-08-19T09:56:59;3.45;;;2.42;;
12224;SDS011;6175;50.956;11.064;2022-08-19T09:59:26;2.83;;;2.22;;
12224;SDS011;6175;50.956;11.064;2022-08-19T10:01:54;2.60;;;1.83;;
12224;SDS011;6175;50.956;11.064;2022-08-19T10:04:22;2.50;;;2.30;;
12224;SDS011;6175;50.956;11.064;2022-08-19T10:07:10;2.33;;;2.13;;
12224;SDS011;6175;50.956;11.064;2022-08-19T10:09:37;2.63;;;2.40;;
12224;SDS011;6175;50.956;11.064;2022-08-19T10:12:06;2.38;;;2.15;;
12224;SDS011;6175;50.956;11.064;2022-08-19T10:14:34;2.50;;;2.30;;
12224;SDS011;6175;50.956;11.064;2022-08-19T10:17:01;3.97;;;2.40;;
12224;SDS011;6175;50.956;11.064;2022-08-19T10:19:29;3.30;;;2.28;;
12224;SDS011;6175;50.956;11.064;2022-08-19T10:22:02;2.40;;;2.20;;
12224;SDS011;6175;50.956;11.064;2022-08-19T10:24:29;2.40;;;2.20;;
12224;SDS011;6175;50.956;11.064;2022-08-19T10:26:57;2.15;;;1.98;;
12224;SDS011;6175;50.956;11.064;2022-08-19T10:29:24;2.45;;;2.10;;
12224;SDS011;6175;50.956;11.064;2022-08-19T10:31:53;2.65;;;2.25;;
12224;SDS011;6175;50.956;11.064;2022-08-19T10:34:20;2.55;;;2.00;;
12224;SDS011;6175;50.956;11.064;2022-08-19T10:36:49;2.40;;;2.20;;
12224;SDS011;6175;50.956;11.064;2022-08-19T10:39:16;2.92;;;2.22;;
12224;SDS011;6175;50.956;11.064;2022-08-19T10:41:43;5.18;;;2.78;;
12224;SDS011;6175;50.956;11.064;2022-08-19T10:44:11;4.15;;;2.38;;
12224;SDS011;6175;50.956;11.064;2022-08-19T10:46:40;4.28;;;2.35;;
12224;SDS011;6175;50.956;11.064;2022-08-19T10:49:10;4.45;;;2.60;;
12224;SDS011;6175;50.956;11.064;2022-08-19T10:51:37;3.13;;;2.55;;
12224;SDS011;6175;50.956;11.064;2022-08-19T10:54:24;3.92;;;2.58;;
12224;SDS011;6175;50.956;11.064;2022-08-19T10:57:11;3.10;;;2.80;;
12224;SDS011;6175;50.956;11.064;2022-08-19T10:59:37;3.13;;;2.83;;
12224;SDS011;6175;50.956;11.064;2022-08-19T11:02:05;3.90;;;3.20;;
12224;SDS011;6175;50.956;11.064;2022-08-19T11:04:35;5.47;;;3.90;;
12224;SDS011;6175;50.956;11.064;2022-08-19T11:07:02;4.88;;;4.28;;
12224;SDS011;6175;50.956;11.064;2022-08-19T11:09:35;4.70;;;4.30;;
12224;SDS011;6175;50.956;11.064;2022-08-19T11:12:03;6.38;;;5.10;;
12224;SDS011;6175;50.956;11.064;2022-08-19T11:14:32;5.10;;;4.68;;
12224;SDS011;6175;50.956;11.064;2022-08-19T11:17:00;5.28;;;4.88;;
12224;SDS011;6175;50.956;11.064;2022-08-19T11:19:30;11.13;;;4.95;;
12224;SDS011;6175;50.956;11.064;2022-08-19T11:21:58;4.75;;;4.20;;
12224;SDS011;6175;50.956;11.064;2022-08-19T11:24:27;6.57;;;5.60;;
12224;SDS011;6175;50.956;11.064;2022-08-19T11:27:00;4.40;;;4.00;;
12224;SDS011;6175;50.956;11.064;2022-08-19T11:29:29;4.13;;;3.83;;
12224;SDS011;6175;50.956;11.064;2022-08-19T11:31:59;4.93;;;4.50;;
12224;SDS011;6175;50.956;11.064;2022-08-19T11:34:29;4.95;;;4.45;;
12224;SDS011;6175;50.956;11.064;2022-08-19T11:36:57;4.80;;;4.38;;
12224;SDS011;6175;50.956;11.064;2022-08-19T11:39:25;4.97;;;4.47;;
12224;SDS011;6175;50.956;11.064;2022-08-19T11:41:54;4.32;;;3.97;;
12224;SDS011;6175;50.956;11.064;2022-08-19T11:44:24;5.85;;;5.25;;
12224;SDS011;6175;50.956;11.064;2022-08-19T11:46:51;4.28;;;3.97;;
12224;SDS011;6175;50.956;11.064;2022-08-19T11:49:19;4.97;;;4.25;;
12224;SDS011;6175;50.956;11.064;2022-08-19T11:51:47;4.45;;;4.05;;
12224;SDS011;6175;50.956;11.064;2022-08-19T11:54:15;5.10;;;4.70;;
12224;SDS011;6175;50.956;11.064;2022-08-19T11:56:43;4.72;;;4.28;;
12224;SDS011;6175;50.956;11.064;2022-08-19T11:59:14;4.05;;;3.65;;
12224;SDS011;6175;50.956;11.064;2022-08-19T12:01:41;3.95;;;3.65;;
12224;SDS011;6175;50.956;11.064;2022-08-19T12:04:09;4.45;;;3.85;;
12224;SDS011;6175;50.956;11.064;2022-08-19T12:06:37;3.75;;;3.45;;
12224;SDS011;6175;50.956;11.064;2022-08-19T12:09:06;3.47;;;3.15;;
12224;SDS011;6175;50.956;11.064;2022-08-19T12:11:35;4.20;;;3.75;;
12224;SDS011;6175;50.956;11.064;2022-08-19T12:14:03;3.58;;;2.95;;
12224;SDS011;6175;50.956;11.064;2022-08-19T12:16:32;5.25;;;3.58;;
12224;SDS011;6175;50.956;11.064;2022-08-19T12:18:59;3.80;;;3.35;;
12224;SDS011;6175;50.956;11.064;2022-08-19T12:21:29;2.90;;;2.70;;
12224;SDS011;6175;50.956;11.064;2022-08-19T12:23:58;3.00;;;2.70;;
12224;SDS011;6175;50.956;11.064;2022-08-19T12:26:26;3.30;;;3.10;;
12224;SDS011;6175;50.956;11.064;2022-08-19T12:28:56;2.60;;;2.40;;
12224;SDS011;6175;50.956;11.064;2022-08-19T12:31:25;2.80;;;2.60;;
12224;SDS011;6175;50.956;11.064;2022-08-19T12:33:54;3.28;;;3.08;;
12224;SDS011;6175;50.956;11.064;2022-08-19T12:36:21;3.10;;;2.90;;
12224;SDS011;6175;50.956;11.064;2022-08-19T12:38:50;3.22;;;2.78;;
12224;SDS011;6175;50.956;11.064;2022-08-19T12:41:18;3.60;;;3.30;;
12224;SDS011;6175;50.956;11.064;2022-08-19T12:43:46;3.53;;;2.65;;
12224;SDS011;6175;50.956;11.064;2022-08-19T12:46:14;4.78;;;3.13;;
12224;SDS011;6175;50.956;11.064;2022-08-19T12:48:42;2.40;;;2.22;;
12224;SDS011;6175;50.956;11.064;2022-08-19T12:51:12;2.97;;;2.78;;
12224;SDS011;6175;50.956;11.064;2022-08-19T12:53:40;3.17;;;2.90;;
12224;SDS011;6175;50.956;11.064;2022-08-19T12:56:08;3.30;;;3.00;;
12224;SDS011;6175;50.956;11.064;2022-08-19T12:58:39;2.42;;;2.25;;
12224;SDS011;6175;50.956;11.064;2022-08-19T13:01:07;3.47;;;3.15;;
12224;SDS011;6175;50.956;11.064;2022-08-19T13:03:35;2.97;;;2.58;;
12224;SDS011;6175;50.956;11.064;2022-08-19T13:06:02;2.70;;;2.50;;
12224;SDS011;6175;50.956;11.064;2022-08-19T13:08:31;2.70;;;2.50;;
12224;SDS011;6175;50.956;11.064;2022-08-19T13:11:05;2.97;;;2.78;;
12224;SDS011;6175;50.956;11.064;2022-08-19T13:13:33;3.25;;;2.30;;
12224;SDS011;6175;50.956;11.064;2022-08-19T13:16:01;2.50;;;2.30;;
12224;SDS011;6175;50.956;11.064;2022-08-19T13:18:29;2.88;;;2.67;;
12224;SDS011;6175;50.956;11.064;2022-08-19T13:20:56;2.78;;;2.58;;
12224;SDS011;6175;50.956;11.064;2022-08-19T13:23:23;3.40;;;2.88;;
12224;SDS011;6175;50.956;11.064;2022-08-19T13:25:57;2.78;;;2.20;;
12224;SDS011;6175;50.956;11.064;2022-08-19T13:28:25;3.05;;;2.30;;
12224;SDS011;6175;50.956;11.064;2022-08-19T13:31:14;2.58;;;2.38;;
12224;SDS011;6175;50.956;11.064;2022-08-19T13:33:58;3.78;;;2.55;;
12224;SDS011;6175;50.956;11.064;2022-08-19T13:36:25;2.60;;;2.40;;
12224;SDS011;6175;50.956;11.064;2022-08-19T13:38:52;2.65;;;2.45;;
12224;SDS011;6175;50.956;11.064;2022-08-19T13:41:21;2.42;;;2.22;;
12224;SDS011;6175;50.956;11.064;2022-08-19T13:43:48;2.17;;;1.98;;
12224;SDS011;6175;50.956;11.064;2022-08-19T13:46:15;2.65;;;2.25;;
12224;SDS011;6175;50.956;11.064;2022-08-19T13:48:42;3.13;;;2.40;;
12224;SDS011;6175;50.956;11.064;2022-08-19T13:51:09;3.25;;;2.28;;
12224;SDS011;6175;50.956;11.064;2022-08-19T13:53:36;2.13;;;2.03;;
12224;SDS011;6175;50.956;11.064;2022-08-19T13:56:04;2.55;;;2.35;;
12224;SDS011;6175;50.956;11.064;2022-08-19T13:58:33;2.20;;;2.00;;
12224;SDS011;6175;50.956;11.064;2022-08-19T14:01:00;2.63;;;1.83;;
12224;SDS011;6175;50.956;11.064;2022-08-19T14:03:27;1.80;;;1.70;;
12224;SDS011;6175;50.956;11.064;2022-08-19T14:05:54;1.92;;;1.83;;
12224;SDS011;6175;50.956;11.064;2022-08-19T14:08:21;1.83;;;1.73;;
12224;SDS011;6175;50.956;11.064;2022-08-19T14:10:48;2.10;;;1.90;;
12224;SDS011;6175;50.956;11.064;2022-08-19T14:13:16;1.92;;;1.75;;
12224;SDS011;6175;50.956;11.064;2022-08-19T14:15:46;2.15;;;1.80;;
12224;SDS011;6175;50.956;11.064;2022-08-19T14:18:13;1.80;;;1.70;;
12224;SDS011;6175;50.956;11.064;2022-08-19T14:20:40;1.70;;;1.60;;
12224;SDS011;6175;50.956;11.064;2022-08-19T14:23:07;1.80;;;1.65;;
12224;SDS011;6175;50.956;11.064;2022-08-19T14:25:34;1.80;;;1.70;;
12224;SDS011;6175;50.956;11.064;2022-08-19T14:28:02;1.48;;;1.38;;
12224;SDS011;6175;50.956;11.064;2022-08-19T14:30:29;1.20;;;1.20;;
12224;SDS011;6175;50.956;11.064;2022-08-19T14:32:59;1.50;;;1.40;;
12224;SDS011;6175;50.956;11.064;2022-08-19T14:35:28;1.58;;;1.48;;
12224;SDS011;6175;50.956;11.064;2022-08-19T14:37:57;1.90;;;1.80;;
12224;SDS011;6175;50.956;11.064;2022-08-19T14:40:25;1.50;;;1.40;;
12224;SDS011;6175;50.956;11.064;2022-08-19T14:42:55;1.63;;;1.52;;
12224;SDS011;6175;50.956;11.064;2022-08-19T14:45:24;1.40;;;1.30;;